Kezdőlap
METAR-TAF:

METAR-TAF

Repülőterek :

Patna, India

földrajzi szélesség: 25-36N, földrajzi hosszúság: 085-06E, magasság: 51 m

Jelenlegi meteorológiai megfigyelések

A jelentés 19 perccel ezelõtt készült, 08:00 UTC
Keleti szél 3 kt
Hőmérséklet 42°C
Páratartalom 46%
Légköri nyomás 992 hPa
Látótávolság: 6000 m

METAR: VEPT 280800Z 09003KT 6000 NSC 42/28 Q0992 NOSIG

Idő: 13:49 (08:19 UTC)

Előrejelzés

A jelentés 3 órával és 19 perccel ezelõtt készült, 05:00 UTC
Az előrejelzés 28-én 06 óra UTC és 28-én 15 óra UTC között érvényes
Keleti szél 10 kt
Látótávolság: 6000 m
Szórványos felhőzet 1800 lábon
Szórványos felhőzet 2500 lábon
28-én 12 óra UTC és 28-én 14 óra UTC között fokozatosan kialakuló
Látótávolság: 4000 m
Kevés felhő 2000 lábon
Szórványos felhőzet 10000 lábon
Száraz légköri homály,

TAF: VEPT 280500Z 2806/2815 09010KT 6000 SCT018 SCT025 BECMG 2812/2814 4000 HZ FEW020 SCT100

Meteorológiai megfigyelések és előrejelzések több, mint 4000 repülőtéren (METAR és TAF jelentéseket).

A térképen piros és sárga pontok jelzik az elérhető meteorológiai állomásokat.

Mozgassa az egeret a pont fölött, hogy megjelenjen az állomás neve.

Azután kattintson az időjárási megfigyelések és előrejelzések megtekintéséhez.

A térkép megváltoztatása: kattintson a fekete keresztel jelölt zöld gombra ráközelítéshez, a vonallal jelölt zöld gombra távolításhoz, vagy a zöld nyilakra a szomszédos térképek eléréséhez.


METAR-TAF: